createdAt,value
2023-02-17T00:00:22.525Z,76.53
2023-02-17T00:02:51.049Z,76.23
2023-02-17T00:05:21.943Z,79.27
2023-02-17T00:07:50.177Z,72.90
2023-02-17T00:10:20.125Z,79.40
2023-02-17T00:12:50.536Z,77.13
2023-02-17T00:15:19.750Z,72.10
2023-02-17T00:17:47.883Z,76.03
2023-02-17T00:20:17.413Z,72.93
2023-02-17T00:22:45.544Z,70.60
2023-02-17T00:25:13.676Z,69.80
2023-02-17T00:27:45.869Z,72.27
2023-02-17T00:30:15.208Z,71.43
2023-02-17T00:32:45.877Z,68.40
2023-02-17T00:35:14.370Z,72.13
2023-02-17T00:37:45.877Z,76.50
2023-02-17T00:40:15.282Z,74.70
2023-02-17T00:42:46.329Z,73.70
2023-02-17T00:45:15.030Z,69.80
2023-02-17T00:47:44.030Z,75.93
2023-02-17T00:50:14.626Z,73.77
2023-02-17T00:52:42.880Z,74.97
2023-02-17T00:55:35.826Z,68.13
2023-02-17T00:58:05.406Z,70.80
2023-02-17T01:00:37.645Z,69.27
2023-02-17T01:03:05.997Z,68.17
2023-02-17T01:05:37.257Z,68.03
2023-02-17T01:08:05.698Z,66.50
2023-02-17T01:10:34.088Z,69.50
2023-02-17T01:13:07.504Z,66.27
2023-02-17T01:15:39.147Z,66.23
2023-02-17T01:18:07.762Z,67.63
2023-02-17T01:20:37.158Z,66.53
2023-02-17T01:23:06.872Z,67.30
2023-02-17T01:25:39.165Z,67.67
2023-02-17T01:28:10.374Z,70.07
2023-02-17T01:30:42.661Z,68.17
2023-02-17T01:33:11.082Z,69.47
2023-02-17T01:35:42.491Z,67.80
2023-02-17T01:38:10.916Z,65.50
2023-02-17T01:40:40.043Z,69.60
2023-02-17T01:43:16.912Z,69.90
2023-02-17T01:45:51.975Z,67.47
2023-02-17T01:48:22.366Z,66.77
2023-02-17T01:50:55.346Z,63.43
2023-02-17T01:53:30.918Z,68.20
2023-02-17T01:56:00.097Z,69.07
2023-02-17T01:58:31.901Z,67.07
2023-02-17T02:01:04.560Z,64.93
2023-02-17T02:03:36.936Z,64.90
2023-02-17T02:06:09.142Z,69.97
2023-02-17T02:08:43.966Z,62.67
2023-02-17T02:11:13.067Z,70.20
2023-02-17T02:13:42.672Z,68.03
2023-02-17T02:16:17.618Z,69.37
2023-02-17T02:18:57.442Z,74.27
2023-02-17T02:21:48.234Z,65.67
2023-02-17T02:24:35.902Z,68.40
2023-02-17T02:27:41.105Z,69.13
2023-02-17T02:30:43.042Z,65.87
2023-02-17T02:33:20.215Z,62.90
2023-02-17T02:35:58.088Z,65.83
2023-02-17T02:38:39.999Z,65.73
2023-02-17T02:41:13.110Z,66.47
2023-02-17T02:43:42.933Z,67.63
2023-02-17T02:46:11.448Z,67.13
2023-02-17T02:48:41.665Z,64.03
2023-02-17T02:51:22.015Z,73.57
2023-02-17T02:54:27.304Z,65.47
2023-02-17T02:57:23.510Z,65.20
2023-02-17T03:00:08.110Z,70.87
2023-02-17T03:02:45.669Z,67.10
2023-02-17T03:05:23.219Z,67.33
2023-02-17T03:08:00.544Z,65.27
2023-02-17T03:10:29.231Z,65.87
2023-02-17T03:12:58.127Z,67.60
2023-02-17T03:15:30.347Z,71.00
2023-02-17T03:17:58.966Z,69.80
2023-02-17T03:20:34.672Z,63.33
2023-02-17T03:23:06.242Z,69.27
2023-02-17T03:25:36.066Z,71.27
2023-02-17T03:28:06.274Z,71.23
2023-02-17T03:30:35.718Z,72.30
2023-02-17T03:33:04.028Z,69.33
2023-02-17T03:35:33.720Z,67.83
2023-02-17T03:38:04.008Z,69.00
2023-02-17T03:40:33.159Z,67.90
2023-02-17T03:43:01.949Z,67.73
2023-02-17T03:45:31.967Z,63.83
2023-02-17T03:48:00.536Z,70.10
2023-02-17T03:50:52.838Z,70.27
2023-02-17T03:53:22.335Z,71.37
2023-02-17T03:56:16.167Z,64.30
2023-02-17T03:58:44.744Z,64.03
2023-02-17T04:01:14.136Z,71.13
2023-02-17T04:03:43.263Z,68.63
2023-02-17T04:06:12.132Z,69.17
2023-02-17T04:08:41.968Z,64.70
2023-02-17T04:11:11.207Z,68.37
2023-02-17T04:13:40.954Z,67.90
2023-02-17T04:16:12.487Z,66.03
2023-02-17T04:18:40.857Z,66.00
2023-02-17T04:21:09.433Z,64.87
2023-02-17T04:23:38.477Z,66.87
2023-02-17T04:26:10.190Z,64.93
2023-02-17T04:28:43.489Z,70.83
2023-02-17T04:31:12.662Z,66.73
2023-02-17T04:33:40.865Z,66.60
2023-02-17T04:36:09.550Z,68.00
2023-02-17T04:38:37.940Z,71.77
2023-02-17T04:41:08.149Z,64.93
2023-02-17T04:43:36.781Z,64.67
2023-02-17T04:46:05.646Z,67.73
2023-02-17T04:48:34.022Z,67.07
2023-02-17T04:51:03.170Z,67.27
2023-02-17T04:53:35.326Z,69.83
2023-02-17T04:56:03.991Z,72.23
2023-02-17T04:58:35.001Z,65.73
2023-02-17T05:01:03.960Z,69.07
2023-02-17T05:03:32.176Z,69.50
2023-02-17T05:06:05.096Z,73.83
2023-02-17T05:08:36.616Z,68.03
2023-02-17T05:11:06.146Z,61.93
2023-02-17T05:13:35.971Z,67.53
2023-02-17T05:16:04.791Z,72.57
2023-02-17T05:18:34.020Z,72.50
2023-02-17T05:21:05.118Z,66.87
2023-02-17T05:23:33.961Z,66.83
2023-02-17T05:26:02.252Z,75.50
2023-02-17T05:28:30.380Z,65.97
2023-02-17T05:31:05.468Z,70.37
2023-02-17T05:33:33.992Z,69.03
2023-02-17T05:36:07.504Z,74.07
2023-02-17T05:38:37.019Z,66.97
2023-02-17T05:41:06.151Z,70.27
2023-02-17T05:43:34.960Z,64.10
2023-02-17T05:46:06.047Z,72.73
2023-02-17T05:48:35.299Z,68.43
2023-02-17T05:51:03.459Z,66.70
2023-02-17T05:53:32.339Z,67.53
2023-02-17T05:56:00.584Z,65.97
2023-02-17T05:58:32.453Z,60.07
2023-02-17T06:01:03.285Z,64.37
2023-02-17T06:03:32.783Z,65.23
2023-02-17T06:06:01.038Z,62.93
2023-02-17T06:08:29.300Z,63.20
2023-02-17T06:10:57.809Z,66.80
2023-02-17T06:13:26.983Z,67.93
2023-02-17T06:15:58.283Z,63.23
2023-02-17T06:18:26.558Z,66.10
2023-02-17T06:20:58.261Z,62.30
2023-02-17T06:23:32.010Z,60.43
2023-02-17T06:26:00.615Z,58.57
2023-02-17T06:28:29.155Z,63.37
2023-02-17T06:30:57.488Z,61.77
2023-02-17T06:33:25.702Z,60.60
2023-02-17T06:35:54.241Z,60.40
2023-02-17T06:38:23.827Z,60.73
2023-02-17T06:40:56.308Z,66.03
2023-02-17T06:43:24.436Z,58.30
2023-02-17T06:45:53.010Z,58.40
2023-02-17T06:48:22.074Z,62.30
2023-02-17T06:50:50.658Z,63.40
2023-02-17T06:53:24.008Z,62.97
2023-02-17T06:55:52.397Z,57.00
2023-02-17T06:58:20.674Z,58.27
2023-02-17T07:00:48.948Z,61.73
2023-02-17T07:03:17.098Z,53.63
2023-02-17T07:05:48.767Z,54.27
2023-02-17T07:08:17.062Z,56.13
2023-02-17T07:10:46.612Z,57.37
2023-02-17T07:13:14.772Z,56.97
2023-02-17T07:15:42.993Z,55.40
2023-02-17T07:18:12.056Z,52.43
2023-02-17T07:20:43.747Z,55.40
2023-02-17T07:23:11.922Z,55.57
2023-02-17T07:25:40.059Z,53.83
2023-02-17T07:28:10.079Z,52.93
2023-02-17T07:30:39.712Z,50.07
2023-02-17T07:33:08.260Z,57.93
2023-02-17T07:35:39.377Z,51.87
2023-02-17T07:38:08.493Z,49.00
2023-02-17T07:40:36.715Z,49.87
2023-02-17T07:43:04.885Z,50.77
2023-02-17T07:45:36.319Z,49.97
2023-02-17T07:48:07.422Z,52.07
2023-02-17T07:50:35.875Z,49.90
2023-02-17T07:53:04.709Z,52.37
2023-02-17T07:55:33.181Z,48.03
2023-02-17T07:58:01.333Z,52.97
2023-02-17T08:00:29.603Z,52.23
2023-02-17T08:02:59.047Z,50.17
2023-02-17T08:05:28.730Z,50.47
2023-02-17T08:08:10.757Z,45.00
2023-02-17T08:10:56.912Z,49.67
2023-02-17T08:13:26.046Z,51.63
2023-02-17T08:15:54.303Z,49.00
2023-02-17T08:18:26.987Z,48.60
2023-02-17T08:20:56.259Z,50.30
2023-02-17T08:23:24.436Z,48.40
2023-02-17T08:25:52.671Z,46.73
2023-02-17T08:28:21.635Z,48.33
2023-02-17T08:30:49.970Z,42.83
2023-02-17T08:33:22.044Z,44.57
2023-02-17T08:35:51.579Z,46.77
2023-02-17T08:38:20.032Z,43.80
2023-02-17T08:40:49.231Z,44.20
2023-02-17T08:43:17.387Z,45.00
2023-02-17T08:45:48.939Z,43.20
2023-02-17T08:48:17.881Z,45.33
2023-02-17T08:50:48.901Z,44.77
2023-02-17T08:53:18.564Z,45.70
2023-02-17T08:55:50.048Z,44.10
2023-02-17T08:58:18.619Z,43.93
2023-02-17T09:00:46.866Z,46.13
2023-02-17T09:03:15.299Z,47.80
2023-02-17T09:05:43.733Z,46.57
2023-02-17T09:08:11.992Z,44.63
2023-02-17T09:10:42.230Z,43.93
2023-02-17T09:13:11.245Z,46.90
2023-02-17T09:15:41.127Z,48.83
2023-02-17T09:18:09.357Z,46.30
2023-02-17T09:20:39.534Z,45.57
2023-02-17T09:23:08.344Z,48.93
2023-02-17T09:25:39.495Z,43.93
2023-02-17T09:28:09.028Z,47.57
2023-02-17T09:30:38.424Z,46.40
2023-02-17T09:33:06.646Z,43.27
2023-02-17T09:35:35.383Z,45.10
2023-02-17T09:38:03.963Z,44.67
2023-02-17T09:40:46.997Z,46.07
2023-02-17T09:43:19.040Z,44.17
2023-02-17T09:45:51.636Z,43.87
2023-02-17T09:48:24.585Z,45.63
2023-02-17T09:50:57.222Z,45.07
2023-02-17T09:53:33.086Z,45.43
2023-02-17T09:56:06.517Z,50.20
2023-02-17T09:58:40.099Z,47.37
2023-02-17T10:01:12.958Z,46.03
2023-02-17T10:03:47.358Z,44.93
2023-02-17T10:06:18.622Z,54.93
2023-02-17T10:08:52.225Z,49.73
2023-02-17T10:11:31.229Z,46.37
2023-02-17T10:14:07.030Z,48.97
2023-02-17T10:16:40.974Z,49.27
2023-02-17T10:19:15.287Z,43.83
2023-02-17T10:21:49.214Z,47.70
2023-02-17T10:24:17.536Z,47.23
2023-02-17T10:26:58.509Z,47.17
2023-02-17T10:29:38.841Z,50.27
2023-02-17T10:32:24.643Z,46.03
2023-02-17T10:35:04.521Z,47.03
2023-02-17T10:37:39.964Z,48.30
2023-02-17T10:40:15.833Z,47.23
2023-02-17T10:42:44.166Z,45.17
2023-02-17T10:45:20.881Z,46.57
2023-02-17T10:47:49.358Z,49.53
2023-02-17T10:50:24.688Z,44.70
2023-02-17T10:52:56.268Z,45.67
2023-02-17T10:55:36.688Z,49.10
2023-02-17T10:58:11.809Z,47.07
2023-02-17T11:00:44.296Z,45.83
2023-02-17T11:03:21.374Z,47.77
2023-02-17T11:05:56.095Z,45.17
2023-02-17T11:08:34.764Z,47.20
2023-02-17T11:11:09.073Z,49.63
2023-02-17T11:13:42.369Z,46.07
2023-02-17T11:16:43.199Z,44.53
2023-02-17T11:19:23.559Z,54.37
2023-02-17T11:21:54.366Z,47.53
2023-02-17T11:24:23.353Z,44.77
2023-02-17T11:27:01.281Z,47.60
2023-02-17T11:29:30.605Z,48.77
2023-02-17T11:32:02.195Z,50.40
2023-02-17T11:34:36.179Z,50.20
2023-02-17T11:37:22.288Z,48.17
2023-02-17T11:39:55.262Z,45.60
2023-02-17T11:42:25.344Z,49.83
2023-02-17T11:44:55.290Z,61.03
2023-02-17T11:47:37.210Z,56.37
2023-02-17T11:50:40.448Z,55.37
2023-02-17T11:53:24.309Z,52.37
2023-02-17T11:56:06.619Z,51.93
2023-02-17T11:58:51.368Z,52.87
2023-02-17T12:01:37.719Z,55.20
2023-02-17T12:04:29.833Z,52.50
2023-02-17T12:07:19.303Z,56.43
2023-02-17T12:09:56.477Z,52.13
2023-02-17T12:12:33.268Z,50.77
2023-02-17T12:15:12.966Z,51.20
2023-02-17T12:17:52.310Z,48.57
2023-02-17T12:20:40.664Z,49.93
2023-02-17T12:23:30.799Z,48.40
2023-02-17T12:26:07.870Z,50.03
2023-02-17T12:28:47.323Z,51.17
2023-02-17T12:31:27.386Z,55.57
2023-02-17T12:34:01.706Z,49.47
2023-02-17T12:36:40.487Z,50.10
2023-02-17T12:39:16.870Z,52.17
2023-02-17T12:41:49.393Z,51.50
2023-02-17T12:44:24.182Z,54.20
2023-02-17T12:46:57.460Z,52.97
2023-02-17T12:49:32.602Z,48.03
2023-02-17T12:52:08.428Z,48.87
2023-02-17T12:54:41.852Z,50.47
2023-02-17T12:57:20.303Z,50.63
2023-02-17T12:59:51.832Z,52.73
2023-02-17T13:02:22.604Z,50.17
2023-02-17T13:04:56.722Z,46.97
2023-02-17T13:07:45.158Z,45.40
2023-02-17T13:10:35.713Z,49.60
2023-02-17T13:13:07.450Z,46.93
2023-02-17T13:15:42.465Z,48.20
2023-02-17T13:18:15.389Z,48.60
2023-02-17T13:20:57.377Z,43.73
2023-02-17T13:23:36.371Z,46.83
2023-02-17T13:26:36.215Z,47.83
2023-02-17T13:29:35.632Z,45.10
2023-02-17T13:32:06.496Z,41.57
2023-02-17T13:34:39.499Z,46.07
2023-02-17T13:37:20.007Z,41.30
2023-02-17T13:39:50.701Z,41.70
2023-02-17T13:42:39.608Z,41.10
2023-02-17T13:45:20.165Z,43.70
2023-02-17T13:47:50.848Z,35.77
2023-02-17T13:50:29.578Z,38.47
2023-02-17T13:52:59.203Z,41.20
2023-02-17T13:55:31.383Z,41.23
2023-02-17T13:58:00.519Z,40.00
2023-02-17T14:00:32.035Z,36.50
2023-02-17T14:03:13.208Z,37.13
2023-02-17T14:05:48.542Z,42.10
2023-02-17T14:08:22.177Z,42.50
2023-02-17T14:10:55.717Z,41.83
2023-02-17T14:13:24.351Z,48.67
2023-02-17T14:15:56.323Z,44.60
2023-02-17T14:18:43.000Z,46.53
2023-02-17T14:21:13.374Z,46.40
2023-02-17T14:23:48.453Z,49.47
2023-02-17T14:26:29.621Z,47.73
2023-02-17T14:28:59.631Z,43.47
2023-02-17T14:31:28.982Z,47.53
2023-02-17T14:33:59.993Z,50.10
2023-02-17T14:36:34.517Z,49.37
2023-02-17T14:39:07.216Z,45.10
2023-02-17T14:41:36.849Z,48.13
2023-02-17T14:44:07.225Z,44.77
2023-02-17T14:46:35.923Z,46.93
2023-02-17T14:49:04.337Z,42.20
2023-02-17T14:51:36.727Z,44.33
2023-02-17T14:54:11.868Z,42.33
2023-02-17T14:56:44.826Z,46.33
2023-02-17T14:59:13.003Z,45.77
2023-02-17T15:01:41.603Z,47.00
2023-02-17T15:04:09.809Z,43.97
2023-02-17T15:06:41.812Z,43.47
2023-02-17T15:09:13.499Z,44.90
2023-02-17T15:11:49.021Z,43.97
2023-02-17T15:14:19.859Z,41.93
2023-02-17T15:16:49.166Z,44.87
2023-02-17T15:19:18.235Z,39.13
2023-02-17T15:21:49.419Z,38.13
2023-02-17T15:24:21.264Z,38.07
2023-02-17T15:26:51.539Z,42.03
2023-02-17T15:29:22.527Z,46.13
2023-02-17T15:31:52.507Z,38.23
2023-02-17T15:34:25.234Z,42.47
2023-02-17T15:36:53.458Z,46.67
2023-02-17T15:39:22.343Z,37.83
2023-02-17T15:41:54.717Z,39.40
2023-02-17T15:44:28.299Z,39.47
2023-02-17T15:46:59.452Z,40.07
2023-02-17T15:49:27.604Z,39.30
2023-02-17T15:51:58.384Z,37.17
2023-02-17T15:54:26.604Z,40.93
2023-02-17T15:56:56.303Z,37.43
2023-02-17T15:59:27.753Z,39.30
2023-02-17T16:01:59.131Z,37.07
2023-02-17T16:04:27.437Z,38.93
2023-02-17T16:06:55.749Z,36.57
2023-02-17T16:09:23.867Z,37.07
2023-02-17T16:11:57.376Z,37.60
2023-02-17T16:14:33.551Z,37.40
2023-02-17T16:17:03.552Z,33.33
2023-02-17T16:19:33.442Z,33.10
2023-02-17T16:22:02.555Z,31.93
2023-02-17T16:24:30.745Z,32.27
2023-02-17T16:26:58.936Z,30.10
2023-02-17T16:29:28.502Z,31.13
2023-02-17T16:31:57.710Z,30.77
2023-02-17T16:34:26.804Z,28.97
2023-02-17T16:36:58.095Z,29.77
2023-02-17T16:39:26.594Z,30.63
2023-02-17T16:41:54.885Z,28.77
2023-02-17T16:44:25.652Z,29.17
2023-02-17T16:46:57.112Z,31.10
2023-02-17T16:49:32.549Z,30.67
2023-02-17T16:52:01.355Z,26.93
2023-02-17T16:54:29.812Z,29.17
2023-02-17T16:57:00.869Z,27.73
2023-02-17T16:59:29.045Z,27.77
2023-02-17T17:01:58.889Z,27.97
2023-02-17T17:04:27.214Z,27.97
2023-02-17T17:06:55.455Z,26.63
2023-02-17T17:09:29.385Z,31.47
2023-02-17T17:11:57.766Z,28.00
2023-02-17T17:14:25.887Z,26.30
2023-02-17T17:16:59.735Z,24.67
2023-02-17T17:19:28.133Z,28.03
2023-02-17T17:21:56.570Z,30.40
2023-02-17T17:24:24.745Z,25.27
2023-02-17T17:26:52.897Z,26.30
2023-02-17T17:29:21.523Z,29.13
2023-02-17T17:31:52.312Z,27.37
2023-02-17T17:34:21.897Z,26.50
2023-02-17T17:36:50.211Z,27.73
2023-02-17T17:39:21.229Z,25.33
2023-02-17T17:41:50.320Z,24.23
2023-02-17T17:44:20.658Z,24.83
2023-02-17T17:46:52.371Z,25.53
2023-02-17T17:49:21.946Z,24.37
2023-02-17T17:51:53.331Z,24.53
2023-02-17T17:54:21.475Z,24.40
2023-02-17T17:56:49.731Z,22.47
2023-02-17T17:59:19.410Z,20.70
2023-02-17T18:01:47.701Z,21.77
2023-02-17T18:04:15.957Z,21.00
2023-02-17T18:06:49.284Z,20.83
2023-02-17T18:09:31.381Z,20.77
2023-02-17T18:12:05.609Z,22.50
2023-02-17T18:14:34.215Z,18.73
2023-02-17T18:17:02.703Z,19.07
2023-02-17T18:19:32.707Z,21.97
2023-02-17T18:22:04.624Z,19.17
2023-02-17T18:24:33.005Z,16.53
2023-02-17T18:27:01.442Z,18.60
2023-02-17T18:29:29.762Z,17.73
2023-02-17T18:32:00.138Z,19.20
2023-02-17T18:34:28.374Z,18.53
2023-02-17T18:36:56.719Z,19.27
2023-02-17T18:39:26.442Z,17.93
2023-02-17T18:41:55.463Z,18.23
2023-02-17T18:44:26.280Z,18.03
2023-02-17T18:46:54.420Z,18.40
2023-02-17T18:49:22.548Z,18.67
2023-02-17T18:51:52.102Z,18.67
2023-02-17T18:54:20.286Z,19.00
2023-02-17T18:56:49.884Z,19.53
2023-02-17T18:59:21.194Z,20.80
2023-02-17T19:01:49.394Z,18.70
2023-02-17T19:04:17.517Z,20.57
2023-02-17T19:06:48.515Z,17.87
2023-02-17T19:09:17.158Z,19.00
2023-02-17T19:11:45.393Z,19.50
2023-02-17T19:14:15.010Z,19.40
2023-02-17T19:16:43.438Z,18.50
2023-02-17T19:19:11.614Z,18.87
2023-02-17T19:21:42.396Z,19.00
2023-02-17T19:24:10.812Z,20.37
2023-02-17T19:26:39.224Z,20.60
2023-02-17T19:29:07.372Z,21.60
2023-02-17T19:31:38.818Z,20.83
2023-02-17T19:34:10.233Z,20.53
2023-02-17T19:36:38.628Z,21.23
2023-02-17T19:39:07.711Z,23.43
2023-02-17T19:41:38.438Z,25.53
2023-02-17T19:44:06.870Z,23.00
2023-02-17T19:46:40.114Z,22.03
2023-02-17T19:49:08.670Z,23.23
2023-02-17T19:51:36.828Z,23.47
2023-02-17T19:54:06.228Z,24.40
2023-02-17T19:56:36.301Z,36.93
2023-02-17T19:59:06.347Z,28.70
2023-02-17T20:01:35.625Z,26.03
2023-02-17T20:04:08.406Z,25.40
2023-02-17T20:06:41.637Z,25.37
2023-02-17T20:09:12.273Z,25.70
2023-02-17T20:11:43.689Z,26.30
2023-02-17T20:14:12.088Z,26.47
2023-02-17T20:16:42.429Z,27.27
2023-02-17T20:19:12.584Z,25.10
2023-02-17T20:21:44.679Z,26.83
2023-02-17T20:24:14.218Z,24.50
2023-02-17T20:26:47.664Z,24.00
2023-02-17T20:29:18.429Z,24.07
2023-02-17T20:31:47.607Z,25.10
2023-02-17T20:34:28.756Z,23.30
2023-02-17T20:37:00.691Z,24.23
2023-02-17T20:39:29.164Z,24.53
2023-02-17T20:41:58.045Z,25.27
2023-02-17T20:44:28.113Z,24.57
2023-02-17T20:46:57.194Z,22.53
2023-02-17T20:49:27.059Z,20.60
2023-02-17T20:51:55.377Z,23.97
2023-02-17T20:54:25.484Z,17.70
2023-02-17T20:56:53.877Z,22.67
2023-02-17T20:59:22.050Z,21.77
2023-02-17T21:01:51.262Z,23.60
2023-02-17T21:04:22.333Z,23.17
2023-02-17T21:06:52.710Z,17.90
2023-02-17T21:09:20.888Z,17.40
2023-02-17T21:11:51.614Z,17.93
2023-02-17T21:14:23.367Z,17.03
2023-02-17T21:16:51.659Z,15.53
2023-02-17T21:19:21.367Z,14.77
2023-02-17T21:21:49.677Z,16.67
2023-02-17T21:24:19.372Z,17.50
2023-02-17T21:26:47.543Z,17.90
2023-02-17T21:29:16.160Z,17.87
2023-02-17T21:31:44.629Z,16.37
2023-02-17T21:34:12.972Z,15.47
2023-02-17T21:36:41.496Z,15.43
2023-02-17T21:39:10.374Z,14.73
2023-02-17T21:41:42.530Z,13.70
2023-02-17T21:44:31.351Z,15.10
2023-02-17T21:46:59.548Z,15.13
2023-02-17T21:49:29.399Z,14.23
2023-02-17T21:51:57.619Z,12.67
2023-02-17T21:54:25.768Z,8.30
2023-02-17T21:56:56.565Z,8.47
2023-02-17T21:59:24.715Z,8.27
2023-02-17T22:01:54.554Z,5.93
2023-02-17T22:04:23.825Z,5.43
2023-02-17T22:06:52.525Z,6.70
2023-02-17T22:09:23.560Z,5.17
2023-02-17T22:11:51.871Z,4.43
2023-02-17T22:14:22.159Z,4.63
2023-02-17T22:16:50.641Z,3.70
2023-02-17T22:19:21.365Z,4.63
2023-02-17T22:21:52.590Z,3.43
2023-02-17T22:24:22.392Z,5.07
2023-02-17T22:26:55.256Z,4.10
2023-02-17T22:29:28.641Z,4.53
2023-02-17T22:31:57.745Z,2.40
2023-02-17T22:34:27.647Z,3.33
2023-02-17T22:36:56.571Z,2.50
2023-02-17T22:39:24.704Z,1.63
2023-02-17T22:41:54.788Z,2.83
2023-02-17T22:44:23.365Z,1.60
2023-02-17T22:46:53.652Z,3.97
2023-02-17T22:49:21.883Z,2.77
2023-02-17T22:51:50.539Z,3.80
2023-02-17T22:54:18.750Z,3.57
2023-02-17T22:56:47.533Z,2.23
2023-02-17T22:59:16.382Z,2.40
2023-02-17T23:01:46.272Z,1.70
2023-02-17T23:04:16.253Z,2.20
2023-02-17T23:06:46.592Z,2.90
2023-02-17T23:09:17.597Z,2.07
2023-02-17T23:11:54.347Z,1.97
2023-02-17T23:14:26.070Z,4.97
2023-02-17T23:16:57.094Z,2.83
2023-02-17T23:19:26.941Z,3.27
2023-02-17T23:22:00.534Z,3.63
2023-02-17T23:24:29.428Z,3.47
2023-02-17T23:27:00.298Z,2.40
2023-02-17T23:29:31.396Z,1.73
2023-02-17T23:31:59.970Z,4.47
2023-02-17T23:34:30.406Z,4.67
2023-02-17T23:36:59.572Z,3.40
2023-02-17T23:39:28.287Z,5.27
2023-02-17T23:41:56.752Z,4.03
2023-02-17T23:44:24.990Z,3.77
2023-02-17T23:46:56.556Z,2.77
2023-02-17T23:49:24.735Z,3.20
2023-02-17T23:51:54.669Z,6.60
2023-02-17T23:54:24.987Z,5.43
2023-02-17T23:56:55.172Z,6.57
2023-02-17T23:59:23.300Z,3.50
